createdAt,value
2022-11-07T00:02:08.780Z,1.27
2022-11-07T00:04:37.914Z,1.20
2022-11-07T00:07:07.347Z,1.30
2022-11-07T00:09:35.642Z,1.08
2022-11-07T00:12:04.233Z,1.13
2022-11-07T00:14:32.527Z,1.50
2022-11-07T00:17:00.969Z,1.13
2022-11-07T00:19:29.173Z,1.27
2022-11-07T00:21:57.376Z,1.30
2022-11-07T00:24:25.455Z,1.23
2022-11-07T00:26:53.701Z,1.60
2022-11-07T00:29:22.104Z,1.57
2022-11-07T00:31:50.573Z,1.73
2022-11-07T00:34:18.626Z,1.20
2022-11-07T00:36:46.831Z,1.37
2022-11-07T00:39:15.029Z,1.17
2022-11-07T00:41:43.140Z,1.17
2022-11-07T00:44:11.222Z,1.20
2022-11-07T00:46:39.279Z,1.13
2022-11-07T00:49:07.506Z,1.42
2022-11-07T00:51:35.683Z,1.08
2022-11-07T00:54:05.468Z,1.30
2022-11-07T00:56:33.707Z,1.00
2022-11-07T00:59:02.118Z,1.58
2022-11-07T01:01:33.730Z,1.00
2022-11-07T01:04:21.293Z,1.20
2022-11-07T01:06:49.737Z,1.20
2022-11-07T01:09:21.427Z,0.95
2022-11-07T01:11:50.488Z,1.53
2022-11-07T01:14:21.427Z,1.03
2022-11-07T01:16:50.346Z,0.90
2022-11-07T01:19:20.110Z,0.80
2022-11-07T01:21:48.554Z,1.10
2022-11-07T01:24:17.116Z,0.90
2022-11-07T01:26:49.904Z,1.10
2022-11-07T01:29:19.517Z,1.10
2022-11-07T01:31:48.324Z,0.90
2022-11-07T01:34:17.886Z,1.13
2022-11-07T01:36:45.940Z,0.85
2022-11-07T01:39:14.155Z,0.88
2022-11-07T01:41:42.815Z,1.33
2022-11-07T01:44:10.797Z,0.93
2022-11-07T01:46:44.517Z,1.10
2022-11-07T01:49:24.481Z,1.00
2022-11-07T01:52:08.525Z,1.27
2022-11-07T01:54:45.010Z,0.80
2022-11-07T01:57:24.225Z,0.70
2022-11-07T01:59:56.147Z,0.80
2022-11-07T02:02:27.439Z,1.10
2022-11-07T02:04:59.875Z,1.15
2022-11-07T02:07:29.422Z,1.13
2022-11-07T02:09:57.719Z,1.17
2022-11-07T02:12:27.757Z,0.70
2022-11-07T02:14:57.126Z,1.23
2022-11-07T02:17:25.445Z,0.90
2022-11-07T02:19:56.702Z,1.10
2022-11-07T02:22:57.395Z,0.90
2022-11-07T02:25:26.053Z,1.52
2022-11-07T02:28:00.375Z,1.10
2022-11-07T02:30:33.979Z,1.08
2022-11-07T02:33:03.407Z,1.95
2022-11-07T02:35:43.943Z,1.33
2022-11-07T02:38:21.408Z,0.93
2022-11-07T02:40:58.617Z,0.95
2022-11-07T02:43:30.297Z,1.05
2022-11-07T02:46:02.820Z,1.13
2022-11-07T02:48:49.713Z,0.95
2022-11-07T02:51:18.398Z,1.00
2022-11-07T02:53:46.861Z,1.10
2022-11-07T02:56:15.046Z,1.00
2022-11-07T02:58:43.269Z,1.30
2022-11-07T03:01:12.510Z,1.08
2022-11-07T03:03:46.370Z,1.42
2022-11-07T03:08:48.318Z,1.20
2022-11-07T03:11:20.122Z,1.20
2022-11-07T03:13:50.367Z,1.50
2022-11-07T03:16:19.740Z,1.08
2022-11-07T03:18:47.851Z,1.10
2022-11-07T03:21:15.929Z,0.93
2022-11-07T03:23:44.015Z,1.17
2022-11-07T03:26:12.071Z,1.48
2022-11-07T03:28:40.178Z,1.40
2022-11-07T03:31:08.342Z,1.33
2022-11-07T03:33:36.465Z,1.52
2022-11-07T03:36:05.025Z,1.20
2022-11-07T03:38:33.110Z,1.17
2022-11-07T03:41:01.169Z,1.30
2022-11-07T03:43:29.269Z,1.20
2022-11-07T03:45:57.354Z,1.33
2022-11-07T03:48:25.440Z,1.15
2022-11-07T03:50:53.614Z,1.40
2022-11-07T03:53:25.512Z,1.27
2022-11-07T03:55:56.499Z,1.52
2022-11-07T03:58:26.862Z,1.05
2022-11-07T04:00:54.849Z,1.67
2022-11-07T04:03:22.936Z,1.35
2022-11-07T04:05:50.989Z,1.60
2022-11-07T04:08:19.339Z,1.30
2022-11-07T04:10:47.514Z,1.45
2022-11-07T04:13:34.106Z,1.50
2022-11-07T04:16:20.911Z,1.85
2022-11-07T04:18:48.988Z,1.67
2022-11-07T04:21:17.044Z,2.55
2022-11-07T04:23:45.148Z,2.60
2022-11-07T04:26:31.809Z,1.65
2022-11-07T04:28:59.917Z,2.58
2022-11-07T04:31:27.975Z,2.50
2022-11-07T04:33:56.084Z,2.60
2022-11-07T04:36:24.141Z,2.72
2022-11-07T04:38:52.259Z,2.30
2022-11-07T04:41:23.792Z,1.95
2022-11-07T04:43:52.129Z,1.95
2022-11-07T04:46:20.334Z,1.63
2022-11-07T04:48:48.423Z,1.35
2022-11-07T04:51:21.776Z,1.52
2022-11-07T04:53:49.871Z,1.52
2022-11-07T04:56:17.917Z,1.90
2022-11-07T04:58:46.121Z,1.70
2022-11-07T05:01:14.202Z,1.67
2022-11-07T05:03:42.465Z,1.50
2022-11-07T05:06:14.686Z,2.08
2022-11-07T05:08:42.794Z,1.85
2022-11-07T05:11:10.852Z,4.22
2022-11-07T05:13:38.963Z,3.40
2022-11-07T05:16:15.177Z,1.83
2022-11-07T05:18:43.622Z,2.55
2022-11-07T05:21:11.944Z,6.85
2022-11-07T05:23:40.145Z,5.60
2022-11-07T05:26:09.429Z,4.72
2022-11-07T05:28:39.784Z,2.92
2022-11-07T05:31:11.831Z,2.90
2022-11-07T05:33:40.032Z,2.63
2022-11-07T05:36:20.834Z,2.65
2022-11-07T05:38:53.358Z,2.63
2022-11-07T05:41:22.520Z,2.00
2022-11-07T05:43:50.626Z,2.00
2022-11-07T05:46:18.684Z,2.47
2022-11-07T05:48:46.890Z,1.73
2022-11-07T05:51:15.001Z,1.70
2022-11-07T05:53:43.178Z,1.77
2022-11-07T05:56:11.376Z,1.67
2022-11-07T05:58:39.582Z,1.60
2022-11-07T06:01:07.925Z,1.75
2022-11-07T06:03:36.014Z,1.50
2022-11-07T06:06:04.184Z,1.60
2022-11-07T06:08:32.295Z,1.77
2022-11-07T06:11:06.108Z,1.77
2022-11-07T06:16:02.394Z,1.60
2022-11-07T06:18:30.596Z,1.63
2022-11-07T06:21:02.159Z,1.65
2022-11-07T06:23:30.362Z,2.05
2022-11-07T06:25:58.471Z,1.90
2022-11-07T06:28:26.671Z,1.63
2022-11-07T06:30:59.168Z,1.60
2022-11-07T06:33:27.374Z,1.63
2022-11-07T06:35:55.812Z,1.70
2022-11-07T06:38:25.096Z,1.47
2022-11-07T06:40:53.177Z,1.80
2022-11-07T06:43:21.889Z,1.73
2022-11-07T06:45:49.942Z,1.60
2022-11-07T06:48:18.145Z,1.67
2022-11-07T06:50:47.547Z,1.77
2022-11-07T06:53:15.947Z,2.20
2022-11-07T06:55:44.565Z,2.50
2022-11-07T06:58:12.666Z,1.80
2022-11-07T07:00:40.803Z,2.03
2022-11-07T07:03:10.531Z,1.50
2022-11-07T07:05:38.827Z,1.30
2022-11-07T07:08:08.236Z,1.85
2022-11-07T07:10:40.848Z,1.73
2022-11-07T07:13:09.768Z,1.50
2022-11-07T07:15:50.360Z,1.80
2022-11-07T07:18:20.147Z,2.10
2022-11-07T07:20:50.337Z,1.77
2022-11-07T07:23:20.567Z,1.50
2022-11-07T07:25:49.454Z,1.40
2022-11-07T07:28:17.609Z,1.67
2022-11-07T07:30:51.594Z,1.63
2022-11-07T07:33:21.631Z,1.40
2022-11-07T07:35:49.750Z,1.73
2022-11-07T07:38:17.977Z,1.30
2022-11-07T07:40:47.872Z,1.55
2022-11-07T07:43:16.488Z,1.30
2022-11-07T07:45:44.872Z,1.45
2022-11-07T07:48:13.043Z,1.60
2022-11-07T07:50:41.129Z,1.98
2022-11-07T07:53:09.540Z,1.35
2022-11-07T07:55:37.679Z,2.13
2022-11-07T07:58:06.255Z,1.48
2022-11-07T08:00:34.931Z,1.48
2022-11-07T08:03:10.445Z,2.05
2022-11-07T08:05:39.700Z,1.63
2022-11-07T08:08:09.223Z,1.73
2022-11-07T08:10:42.443Z,1.50
2022-11-07T08:13:11.185Z,1.98
2022-11-07T08:15:39.229Z,1.30
2022-11-07T08:18:07.463Z,1.52
2022-11-07T08:20:35.513Z,2.30
2022-11-07T08:23:12.869Z,1.85
2022-11-07T08:25:58.835Z,1.70
2022-11-07T08:31:10.355Z,1.33
2022-11-07T08:33:39.069Z,1.42
2022-11-07T08:36:08.288Z,1.42
2022-11-07T08:38:36.998Z,1.48
2022-11-07T08:41:05.796Z,1.75
2022-11-07T08:43:33.976Z,1.73
2022-11-07T08:46:02.090Z,1.85
2022-11-07T08:48:30.296Z,1.80
2022-11-07T08:50:59.464Z,2.53
2022-11-07T08:53:28.148Z,1.88
2022-11-07T08:56:10.469Z,1.98
2022-11-07T08:58:38.940Z,2.42
2022-11-07T09:01:10.532Z,2.30
2022-11-07T09:03:52.907Z,1.65
2022-11-07T09:06:24.885Z,2.72
2022-11-07T09:08:53.080Z,1.95
2022-11-07T09:11:22.277Z,1.73
2022-11-07T09:13:50.446Z,1.77
2022-11-07T09:16:19.129Z,1.73
2022-11-07T09:18:49.640Z,1.40
2022-11-07T09:21:22.369Z,1.17
2022-11-07T09:23:52.165Z,2.38
2022-11-07T09:26:20.700Z,1.83
2022-11-07T09:28:52.379Z,1.55
2022-11-07T09:31:22.507Z,2.10
2022-11-07T09:33:50.609Z,1.70
2022-11-07T09:36:18.787Z,1.77
2022-11-07T09:38:47.253Z,1.83
2022-11-07T09:41:39.432Z,1.73
2022-11-07T09:44:23.463Z,1.40
2022-11-07T09:47:08.141Z,1.60
2022-11-07T09:50:00.799Z,1.70
2022-11-07T09:52:35.963Z,9.93
2022-11-07T09:55:26.518Z,6.20
2022-11-07T09:58:00.929Z,2.10
2022-11-07T10:00:32.250Z,1.67
2022-11-07T10:03:04.652Z,1.70
2022-11-07T10:06:03.336Z,2.03
2022-11-07T10:09:04.925Z,1.40
2022-11-07T10:11:50.981Z,1.63
2022-11-07T10:14:55.334Z,1.50
2022-11-07T10:17:44.388Z,1.55
2022-11-07T10:20:47.630Z,1.30
2022-11-07T10:23:36.232Z,1.25
2022-11-07T10:26:16.196Z,1.73
2022-11-07T10:29:17.758Z,1.30
2022-11-07T10:32:30.122Z,1.23
2022-11-07T10:35:13.082Z,1.23
2022-11-07T10:37:41.192Z,1.80
2022-11-07T10:40:21.850Z,1.88
2022-11-07T10:42:51.370Z,1.25
2022-11-07T10:45:19.724Z,1.50
2022-11-07T10:48:05.576Z,1.10
2022-11-07T10:50:33.979Z,1.00
2022-11-07T10:53:09.991Z,2.55
2022-11-07T10:55:48.026Z,1.20
2022-11-07T10:58:30.265Z,1.67
2022-11-07T11:01:08.317Z,1.10
2022-11-07T11:03:45.414Z,1.10
2022-11-07T11:06:19.714Z,1.38
2022-11-07T11:08:50.800Z,1.60
2022-11-07T11:11:21.882Z,1.52
2022-11-07T11:14:00.666Z,1.23
2022-11-07T11:16:33.882Z,1.10
2022-11-07T11:19:03.525Z,0.82
2022-11-07T11:21:44.337Z,1.40
2022-11-07T11:24:34.371Z,0.93
2022-11-07T11:27:17.840Z,1.15
2022-11-07T11:30:07.515Z,0.90
2022-11-07T11:32:48.660Z,1.25
2022-11-07T11:35:41.618Z,1.98
2022-11-07T11:38:21.905Z,1.30
2022-11-07T11:41:04.728Z,1.38
2022-11-07T11:43:51.696Z,1.02
2022-11-07T11:46:58.279Z,1.25
2022-11-07T11:49:35.864Z,1.60
2022-11-07T11:52:24.477Z,1.52
2022-11-07T11:54:56.242Z,1.02
2022-11-07T11:57:41.505Z,1.30
2022-11-07T12:00:22.886Z,1.30
2022-11-07T12:03:34.555Z,1.38
2022-11-07T12:06:20.273Z,1.50
2022-11-07T12:09:18.152Z,1.08
2022-11-07T12:12:30.346Z,1.27
2022-11-07T12:15:37.415Z,1.27
2022-11-07T12:18:19.296Z,1.30
2022-11-07T12:21:12.470Z,1.58
2022-11-07T12:23:46.319Z,1.30
2022-11-07T12:26:20.396Z,1.02
2022-11-07T12:29:24.226Z,1.40
2022-11-07T12:32:38.751Z,1.00
2022-11-07T12:35:40.673Z,1.05
2022-11-07T12:38:57.868Z,1.45
2022-11-07T12:42:08.208Z,0.90
2022-11-07T12:44:48.019Z,0.98
2022-11-07T12:47:37.693Z,1.13
2022-11-07T12:50:32.888Z,1.08
2022-11-07T12:53:02.891Z,1.10
2022-11-07T12:55:42.272Z,1.20
2022-11-07T12:58:25.822Z,0.82
2022-11-07T13:00:54.526Z,1.58
2022-11-07T13:03:44.793Z,1.10
2022-11-07T13:06:36.983Z,1.45
2022-11-07T13:09:33.761Z,1.33
2022-11-07T13:12:26.080Z,1.65
2022-11-07T13:14:54.750Z,1.40
2022-11-07T13:17:27.812Z,1.10
2022-11-07T13:20:05.800Z,1.63
2022-11-07T13:22:37.135Z,1.20
2022-11-07T13:25:17.617Z,1.10
2022-11-07T13:27:57.894Z,1.55
2022-11-07T13:30:35.465Z,1.23
2022-11-07T13:33:05.706Z,1.30
2022-11-07T13:35:39.189Z,1.25
2022-11-07T13:38:26.095Z,1.50
2022-11-07T13:41:04.746Z,1.25
2022-11-07T13:43:58.992Z,1.30
2022-11-07T13:49:26.715Z,1.23
2022-11-07T13:52:02.844Z,1.42
2022-11-07T13:54:57.314Z,1.40
2022-11-07T13:57:42.827Z,1.23
2022-11-07T14:00:15.510Z,1.10
2022-11-07T14:02:56.353Z,1.00
2022-11-07T14:05:36.800Z,1.45
2022-11-07T14:08:39.815Z,1.20
2022-11-07T14:11:21.814Z,1.30
2022-11-07T14:13:54.217Z,1.23
2022-11-07T14:16:32.738Z,1.25
2022-11-07T14:19:07.311Z,1.00
2022-11-07T14:21:37.440Z,0.85
2022-11-07T14:24:25.088Z,1.00
2022-11-07T14:27:03.939Z,1.00
2022-11-07T14:29:32.747Z,1.40
2022-11-07T14:32:06.953Z,1.55
2022-11-07T14:34:36.588Z,1.15
2022-11-07T14:37:07.910Z,1.40
2022-11-07T14:39:39.114Z,1.05
2022-11-07T14:42:08.394Z,3.15
2022-11-07T14:44:54.044Z,3.05
2022-11-07T14:47:33.023Z,1.45
2022-11-07T14:50:02.149Z,1.23
2022-11-07T14:52:39.975Z,1.55
2022-11-07T14:55:29.408Z,1.10
2022-11-07T14:58:03.986Z,0.85
2022-11-07T15:00:33.263Z,1.63
2022-11-07T15:03:02.431Z,1.00
2022-11-07T15:05:43.227Z,1.15
2022-11-07T15:08:31.832Z,1.48
2022-11-07T15:11:22.356Z,1.70
2022-11-07T15:13:51.387Z,1.40
2022-11-07T15:16:22.841Z,1.52
2022-11-07T15:19:00.042Z,0.80
2022-11-07T15:21:28.608Z,1.48
2022-11-07T15:23:58.249Z,1.40
2022-11-07T15:26:33.186Z,1.73
2022-11-07T15:29:22.005Z,1.00
2022-11-07T15:31:50.115Z,1.20
2022-11-07T15:34:33.711Z,1.17
2022-11-07T15:37:12.544Z,1.60
2022-11-07T15:39:40.611Z,1.35
2022-11-07T15:42:08.707Z,1.60
2022-11-07T15:44:36.783Z,2.67
2022-11-07T15:47:06.791Z,1.85
2022-11-07T15:49:35.580Z,3.00
2022-11-07T15:52:03.785Z,2.90
2022-11-07T15:54:31.865Z,2.55
2022-11-07T15:57:04.163Z,2.38
2022-11-07T15:59:37.510Z,2.63
2022-11-07T16:02:11.388Z,3.35
2022-11-07T16:04:39.901Z,3.00
2022-11-07T16:07:20.486Z,4.20
2022-11-07T16:09:49.000Z,5.43
2022-11-07T16:12:19.407Z,2.50
2022-11-07T16:14:47.493Z,4.38
2022-11-07T16:17:18.234Z,5.97
2022-11-07T16:19:46.901Z,7.57
2022-11-07T16:22:16.554Z,8.35
2022-11-07T16:24:44.615Z,8.10
2022-11-07T16:27:18.112Z,7.15
2022-11-07T16:29:46.658Z,5.68
2022-11-07T16:32:18.527Z,5.22
2022-11-07T16:34:47.761Z,5.15
2022-11-07T16:37:15.834Z,4.88
2022-11-07T16:39:44.536Z,3.75
2022-11-07T16:42:16.375Z,4.75
2022-11-07T16:44:44.615Z,4.82
2022-11-07T16:47:16.682Z,3.95
2022-11-07T16:49:45.494Z,3.15
2022-11-07T16:52:20.539Z,2.17
2022-11-07T16:54:48.845Z,1.60
2022-11-07T16:57:18.746Z,1.90
2022-11-07T16:59:47.183Z,2.20
2022-11-07T17:02:24.818Z,2.10
2022-11-07T17:04:54.382Z,2.40
2022-11-07T17:07:24.037Z,1.95
2022-11-07T17:09:52.337Z,2.40
2022-11-07T17:12:23.662Z,2.53
2022-11-07T17:14:52.976Z,2.70
2022-11-07T17:17:21.387Z,2.53
2022-11-07T17:19:49.789Z,2.10
2022-11-07T17:22:18.163Z,2.58
2022-11-07T17:24:46.376Z,5.57
2022-11-07T17:27:23.925Z,5.25
2022-11-07T17:29:53.980Z,5.38
2022-11-07T17:32:22.242Z,7.70
2022-11-07T17:35:10.922Z,4.43
2022-11-07T17:37:39.896Z,1.95
2022-11-07T17:40:14.497Z,2.72
2022-11-07T17:42:42.649Z,2.47
2022-11-07T17:45:11.931Z,2.72
2022-11-07T17:47:40.504Z,2.42
2022-11-07T17:50:15.902Z,2.72
2022-11-07T17:52:43.992Z,2.42
2022-11-07T17:55:12.421Z,2.60
2022-11-07T17:57:40.983Z,3.05
2022-11-07T18:00:17.963Z,3.42
2022-11-07T18:02:48.542Z,2.75
2022-11-07T18:05:20.354Z,3.10
2022-11-07T18:07:48.449Z,3.13
2022-11-07T18:10:17.500Z,2.70
2022-11-07T18:12:45.574Z,2.30
2022-11-07T18:15:13.781Z,1.98
2022-11-07T18:17:42.333Z,2.00
2022-11-07T18:20:11.126Z,1.83
2022-11-07T18:22:39.333Z,2.20
2022-11-07T18:25:08.741Z,2.40
2022-11-07T18:27:37.306Z,2.10
2022-11-07T18:30:07.191Z,2.65
2022-11-07T18:32:36.791Z,2.72
2022-11-07T18:35:06.417Z,1.90
2022-11-07T18:37:34.914Z,1.77
2022-11-07T18:40:03.108Z,2.28
2022-11-07T18:42:31.309Z,2.00
2022-11-07T18:44:59.390Z,1.77
2022-11-07T18:47:28.805Z,1.92
2022-11-07T18:49:57.593Z,2.10
2022-11-07T18:52:26.053Z,1.85
2022-11-07T18:54:54.365Z,2.60
2022-11-07T18:57:22.459Z,2.13
2022-11-07T18:59:50.645Z,2.22
2022-11-07T19:02:18.765Z,2.15
2022-11-07T19:04:46.944Z,2.00
2022-11-07T19:07:15.011Z,2.30
2022-11-07T19:09:43.093Z,2.40
2022-11-07T19:12:11.189Z,2.05
2022-11-07T19:14:39.379Z,3.20
2022-11-07T19:17:07.476Z,3.35
2022-11-07T19:19:36.503Z,2.58
2022-11-07T19:22:05.785Z,2.78
2022-11-07T19:24:34.723Z,1.90
2022-11-07T19:27:02.806Z,2.53
2022-11-07T19:29:30.953Z,2.83
2022-11-07T19:31:58.966Z,2.53
2022-11-07T19:34:27.180Z,2.17
2022-11-07T19:36:55.255Z,2.90
2022-11-07T19:39:23.442Z,2.10
2022-11-07T19:41:51.535Z,2.10
2022-11-07T19:44:19.734Z,2.67
2022-11-07T19:46:48.064Z,2.20
2022-11-07T19:49:16.134Z,2.00
2022-11-07T19:51:44.216Z,1.65
2022-11-07T19:54:12.656Z,3.17
2022-11-07T19:56:40.757Z,2.33
2022-11-07T19:59:10.261Z,3.50
2022-11-07T20:01:39.543Z,2.92
2022-11-07T20:04:08.915Z,2.10
2022-11-07T20:06:39.083Z,2.00
2022-11-07T20:09:09.550Z,2.63
2022-11-07T20:11:38.142Z,2.33
2022-11-07T20:14:06.556Z,2.60
2022-11-07T20:16:37.398Z,1.80
2022-11-07T20:19:06.083Z,3.13
2022-11-07T20:21:34.673Z,2.10
2022-11-07T20:24:05.501Z,2.40
2022-11-07T20:26:33.577Z,2.70
2022-11-07T20:29:02.132Z,2.10
2022-11-07T20:31:33.829Z,2.10
2022-11-07T20:34:05.267Z,2.05
2022-11-07T20:36:34.658Z,2.05
2022-11-07T20:39:03.821Z,2.50
2022-11-07T20:41:32.755Z,2.28
2022-11-07T20:44:07.546Z,2.70
2022-11-07T20:46:39.227Z,2.05
2022-11-07T20:49:12.119Z,3.28
2022-11-07T20:51:41.273Z,3.00
2022-11-07T20:54:16.316Z,2.55
2022-11-07T20:56:44.411Z,2.53
2022-11-07T20:59:12.972Z,2.20
2022-11-07T21:01:41.245Z,1.88
2022-11-07T21:04:14.066Z,2.20
2022-11-07T21:06:42.727Z,1.90
2022-11-07T21:09:11.294Z,2.15
2022-11-07T21:11:39.625Z,1.80
2022-11-07T21:14:08.062Z,1.55
2022-11-07T21:16:36.380Z,2.63
2022-11-07T21:19:05.623Z,1.80
2022-11-07T21:21:33.822Z,1.70
2022-11-07T21:24:02.676Z,1.80
2022-11-07T21:26:35.688Z,2.75
2022-11-07T21:29:06.881Z,1.73
2022-11-07T21:31:37.124Z,1.67
2022-11-07T21:34:09.273Z,1.73
2022-11-07T21:36:37.739Z,1.70
2022-11-07T21:39:07.604Z,1.83
2022-11-07T21:41:36.289Z,1.80
2022-11-07T21:44:04.483Z,2.05
2022-11-07T21:46:34.502Z,1.73
2022-11-07T21:49:04.985Z,1.60
2022-11-07T21:51:34.749Z,2.63
2022-11-07T21:54:04.735Z,10.07
2022-11-07T21:56:37.017Z,11.70
2022-11-07T21:59:09.900Z,6.10
2022-11-07T22:01:39.618Z,3.17
2022-11-07T22:04:12.520Z,2.78
2022-11-07T22:06:44.599Z,2.10
2022-11-07T22:09:18.322Z,2.38
2022-11-07T22:11:47.239Z,2.70
2022-11-07T22:14:19.167Z,2.60
2022-11-07T22:16:48.672Z,1.95
2022-11-07T22:19:18.341Z,2.40
2022-11-07T22:21:46.519Z,2.13
2022-11-07T22:24:14.601Z,1.92
2022-11-07T22:26:43.180Z,2.08
2022-11-07T22:29:11.245Z,2.58
2022-11-07T22:31:39.346Z,2.53
2022-11-07T22:34:07.412Z,2.67
2022-11-07T22:36:35.633Z,2.60
2022-11-07T22:39:03.830Z,2.30
2022-11-07T22:41:31.912Z,2.42
2022-11-07T22:44:00.110Z,2.30
2022-11-07T22:46:31.078Z,1.87
2022-11-07T22:49:00.141Z,2.30
2022-11-07T22:51:34.560Z,3.17
2022-11-07T22:54:06.835Z,2.97
2022-11-07T22:56:36.604Z,2.27
2022-11-07T22:59:05.996Z,2.20
2022-11-07T23:01:38.482Z,2.00
2022-11-07T23:04:08.641Z,2.40
2022-11-07T23:06:36.981Z,2.08
2022-11-07T23:09:05.645Z,1.80
2022-11-07T23:11:51.341Z,2.75
2022-11-07T23:14:21.744Z,2.60
2022-11-07T23:16:53.186Z,2.27
2022-11-07T23:19:24.375Z,1.93
2022-11-07T23:21:54.997Z,2.53
2022-11-07T23:24:23.663Z,2.40
2022-11-07T23:26:51.874Z,2.60
2022-11-07T23:29:24.196Z,2.30
2022-11-07T23:31:53.068Z,2.05
2022-11-07T23:34:22.361Z,2.00
2022-11-07T23:36:51.889Z,2.00
2022-11-07T23:39:22.859Z,1.87
2022-11-07T23:41:51.064Z,2.40
2022-11-07T23:44:19.119Z,2.53
2022-11-07T23:47:06.420Z,2.00
2022-11-07T23:49:54.406Z,2.05
2022-11-07T23:52:22.628Z,2.17
2022-11-07T23:55:09.181Z,2.20
2022-11-07T23:57:57.692Z,2.03
